This is the latest recevied weather packets stored in our database for station/object HS1WDC-1. If no packets are shown the sender has not sent any weather packets the latest 10 day(s).
| Time | Temp. | Humidity | Pressure | Rain* | Wind** | Luminosity | Snow |
|---|---|---|---|---|---|---|---|
| 1777889383 | 40.56° C | 42% | 1004 hPa | - | - | 0 W/m² | - |
| 1777888458 | 41.11° C | 41% | 1004 hPa | - | - | 0 W/m² | - |
| 1777887534 | 41.67° C | 39% | 1004 hPa | - | - | 0 W/m² | - |
| 1777886610 | 41.67° C | 38% | 1004 hPa | - | - | 0 W/m² | - |
| 1777885685 | 41.67° C | 39% | 1004 hPa | - | - | 0 W/m² | - |
| 1777884761 | 41.67° C | 39% | 1004 hPa | - | - | 0 W/m² | - |
| 1777883837 | 41.67° C | 40% | 1005 hPa | - | - | 0 W/m² | - |
| 1777882912 | 42.22° C | 39% | 1005 hPa | - | - | 0 W/m² | - |
| 1777881988 | 41.67° C | 40% | 1005 hPa | - | - | 0 W/m² | - |
| 1777881064 | 41.11° C | 41% | 1005 hPa | - | - | 0 W/m² | - |
| 1777880140 | 41.11° C | 42% | 1006 hPa | - | - | 0 W/m² | - |
| 1777879215 | 41.11° C | 42% | 1006 hPa | - | - | 0 W/m² | - |
| 1777878291 | 40.56° C | 43% | 1006 hPa | - | - | 0 W/m² | - |
| 1777877367 | 40.56° C | 43% | 1007 hPa | - | - | 0 W/m² | - |
| 1777876443 | 40.56° C | 43% | 1007 hPa | - | - | 0 W/m² | - |
| 1777875518 | 39.44° C | 44% | 1007 hPa | - | - | 0 W/m² | - |
| 1777874593 | 39.44° C | 45% | 1008 hPa | - | - | 0 W/m² | - |
| 1777873669 | 38.89° C | 45% | 1008 hPa | - | - | 0 W/m² | - |
| 1777872745 | 38.33° C | 49% | 1009 hPa | - | - | 0 W/m² | - |
| 1777871820 | 38.33° C | 48% | 1009 hPa | - | - | 0 W/m² | - |
| 1777870896 | 37.78° C | 51% | 1009 hPa | - | - | 0 W/m² | - |
| 1777869972 | 37.78° C | 50% | 1009 hPa | - | - | 0 W/m² | - |
| 1777869047 | 37.78° C | 47% | 1009 hPa | - | - | 0 W/m² | - |
| 1777868123 | 40° C | 40% | 1009 hPa | - | - | 0 W/m² | - |
| 1777867199 | 40° C | 40% | 1009 hPa | - | - | 0 W/m² | - |
* Rain since midnight (hover to see other rain measurements)
** Current wind speed in m/s (hover to see current wind gust speed)